createdAt,value
2023-05-03T00:02:07.249Z,6.45
2023-05-03T00:04:36.464Z,6.44
2023-05-03T00:07:10.833Z,6.38
2023-05-03T00:09:41.580Z,6.30
2023-05-03T00:12:14.058Z,6.26
2023-05-03T00:14:43.453Z,6.27
2023-05-03T00:17:12.942Z,6.28
2023-05-03T00:19:48.985Z,6.39
2023-05-03T00:22:18.442Z,6.41
2023-05-03T00:24:49.052Z,6.42
2023-05-03T00:27:27.980Z,6.44
2023-05-03T00:29:57.325Z,6.57
2023-05-03T00:32:26.668Z,6.67
2023-05-03T00:34:56.357Z,6.74
2023-05-03T00:37:25.891Z,6.70
2023-05-03T00:39:55.628Z,6.61
2023-05-03T00:42:26.813Z,6.84
2023-05-03T00:44:57.496Z,6.87
2023-05-03T00:47:27.060Z,6.98
2023-05-03T00:52:38.792Z,7.07
2023-05-03T00:55:13.968Z,7.07
2023-05-03T00:57:45.283Z,7.14
2023-05-03T01:00:17.700Z,7.03
2023-05-03T01:02:47.041Z,7.10
2023-05-03T01:05:16.440Z,7.03
2023-05-03T01:08:02.988Z,6.88
2023-05-03T01:16:17.392Z,6.77
2023-05-03T01:18:49.965Z,6.74
2023-05-03T01:21:27.104Z,6.74
2023-05-03T01:24:01.646Z,6.76
2023-05-03T01:26:35.219Z,6.79
2023-05-03T01:29:04.732Z,6.82
2023-05-03T01:31:38.575Z,6.86
2023-05-03T01:34:25.195Z,6.86
2023-05-03T01:36:58.025Z,6.85
2023-05-03T01:39:33.398Z,6.74
2023-05-03T01:42:11.196Z,6.80
2023-05-03T01:44:46.459Z,6.82
2023-05-03T01:47:16.758Z,6.87
2023-05-03T01:49:46.154Z,6.91
2023-05-03T01:52:32.118Z,6.95
2023-05-03T01:55:01.427Z,6.98
2023-05-03T01:57:34.647Z,7.04
2023-05-03T02:00:04.489Z,7.09
2023-05-03T02:02:42.541Z,7.18
2023-05-03T02:05:17.149Z,7.22
2023-05-03T02:07:47.058Z,7.27
2023-05-03T02:10:16.439Z,7.19
2023-05-03T02:12:47.713Z,7.45
2023-05-03T02:15:24.676Z,7.30
2023-05-03T02:17:55.327Z,7.68
2023-05-03T02:20:24.847Z,7.77
2023-05-03T02:22:54.473Z,7.74
2023-05-03T02:25:29.063Z,7.88
2023-05-03T02:28:00.808Z,7.93
2023-05-03T02:30:29.963Z,8.09
2023-05-03T02:33:09.151Z,8.14
2023-05-03T02:35:40.608Z,8.27
2023-05-03T02:38:10.010Z,8.35
2023-05-03T02:40:39.318Z,8.59
2023-05-03T02:43:10.655Z,8.81
2023-05-03T02:45:40.132Z,8.93
2023-05-03T02:48:09.518Z,9.17
2023-05-03T02:50:44.411Z,9.34
2023-05-03T02:53:13.698Z,9.49
2023-05-03T02:55:43.341Z,9.51
2023-05-03T02:58:14.990Z,9.62
2023-05-03T03:00:44.689Z,9.62
2023-05-03T03:03:17.929Z,9.62
2023-05-03T03:05:47.469Z,9.62
2023-05-03T03:08:23.058Z,9.59
2023-05-03T03:10:52.861Z,9.52
2023-05-03T03:13:24.131Z,9.42
2023-05-03T03:15:58.730Z,9.29
2023-05-03T03:18:29.941Z,9.31
2023-05-03T03:20:59.422Z,9.25
2023-05-03T03:23:28.940Z,9.35
2023-05-03T03:26:03.309Z,9.37
2023-05-03T03:28:34.623Z,9.42
2023-05-03T03:31:10.959Z,9.42
2023-05-03T03:33:41.408Z,9.51
2023-05-03T03:36:16.033Z,9.57
2023-05-03T03:38:53.416Z,9.58
2023-05-03T03:41:23.281Z,9.51
2023-05-03T03:43:55.386Z,9.50
2023-05-03T03:46:36.024Z,9.52
2023-05-03T03:49:05.915Z,9.43
2023-05-03T03:51:35.800Z,9.52
2023-05-03T03:54:05.287Z,9.58
2023-05-03T03:56:43.671Z,9.69
2023-05-03T03:59:15.509Z,9.70
2023-05-03T04:01:46.134Z,9.69
2023-05-03T04:04:21.209Z,9.83
2023-05-03T04:06:51.575Z,9.86
2023-05-03T04:09:22.104Z,9.86
2023-05-03T04:11:51.494Z,9.80
2023-05-03T04:16:58.798Z,9.56
2023-05-03T04:19:28.863Z,9.50
2023-05-03T04:22:03.740Z,9.34
2023-05-03T04:24:33.371Z,9.49
2023-05-03T04:27:09.089Z,9.59
2023-05-03T04:29:43.462Z,9.58
2023-05-03T04:32:22.887Z,9.62
2023-05-03T04:34:54.614Z,9.63
2023-05-03T04:37:27.182Z,9.68
2023-05-03T04:39:56.522Z,9.80
2023-05-03T04:42:26.000Z,9.87
2023-05-03T04:45:03.168Z,10.09
2023-05-03T04:47:34.670Z,10.13
2023-05-03T04:50:15.738Z,10.13
2023-05-03T04:52:48.793Z,10.01
2023-05-03T04:55:23.778Z,9.91
2023-05-03T04:58:09.443Z,9.85
2023-05-03T05:00:44.512Z,9.85
2023-05-03T05:03:21.555Z,9.71
2023-05-03T05:05:53.354Z,9.67
2023-05-03T05:08:23.311Z,9.56
2023-05-03T05:10:57.862Z,9.21
2023-05-03T05:13:32.977Z,9.47
2023-05-03T05:16:10.405Z,9.51
2023-05-03T05:18:43.080Z,9.61
2023-05-03T05:21:14.221Z,9.67
2023-05-03T05:23:43.712Z,9.62
2023-05-03T05:26:13.636Z,9.82
2023-05-03T05:28:43.382Z,10.19
2023-05-03T05:31:15.336Z,10.74
2023-05-03T05:33:45.447Z,11.13
2023-05-03T05:36:16.166Z,11.17
2023-05-03T05:41:21.088Z,11.34
2023-05-03T05:43:55.781Z,11.45
2023-05-03T05:46:27.413Z,11.47
2023-05-03T05:49:02.229Z,11.80
2023-05-03T05:51:31.773Z,12.01
2023-05-03T05:54:01.739Z,12.26
2023-05-03T05:56:31.110Z,12.66
2023-05-03T05:59:00.667Z,12.67
2023-05-03T06:04:08.795Z,12.96
2023-05-03T06:06:38.451Z,12.78
2023-05-03T06:09:17.182Z,12.47
2023-05-03T06:11:55.833Z,13.06
2023-05-03T06:14:31.457Z,13.46
2023-05-03T06:17:03.757Z,13.75
2023-05-03T06:19:33.284Z,13.93
2023-05-03T06:22:02.473Z,13.89
2023-05-03T06:24:33.480Z,14.32
2023-05-03T06:27:08.040Z,14.52
2023-05-03T06:29:44.519Z,14.52
2023-05-03T06:32:15.949Z,14.35
2023-05-03T06:34:50.546Z,14.21
2023-05-03T06:37:20.946Z,14.00
2023-05-03T06:39:55.733Z,14.32
2023-05-03T06:42:25.196Z,14.70
2023-05-03T06:45:13.676Z,15.22
2023-05-03T06:47:45.197Z,15.51
2023-05-03T06:50:14.819Z,15.66
2023-05-03T06:52:44.110Z,15.59
2023-05-03T06:55:13.705Z,16.01
2023-05-03T06:57:43.674Z,15.71
2023-05-03T07:00:15.616Z,15.76
2023-05-03T07:02:47.097Z,15.60
2023-05-03T07:05:16.829Z,15.42
2023-05-03T07:07:46.109Z,15.15
2023-05-03T07:10:16.214Z,15.07
2023-05-03T07:12:45.501Z,15.36
2023-05-03T07:15:14.825Z,15.86
2023-05-03T07:17:44.139Z,16.46
2023-05-03T07:20:15.764Z,16.55
2023-05-03T07:22:45.880Z,16.49
2023-05-03T07:25:17.349Z,16.38
2023-05-03T07:27:46.732Z,16.12
2023-05-03T07:30:21.937Z,15.61
2023-05-03T07:32:51.426Z,15.71
2023-05-03T07:35:22.901Z,15.86
2023-05-03T07:37:52.413Z,15.95
2023-05-03T07:40:21.828Z,16.26
2023-05-03T07:42:51.347Z,16.38
2023-05-03T07:45:27.237Z,16.34
2023-05-03T07:47:58.353Z,16.35
2023-05-03T07:50:29.725Z,16.35
2023-05-03T07:52:59.742Z,16.01
2023-05-03T07:55:31.130Z,16.23
2023-05-03T07:58:00.912Z,16.64
2023-05-03T08:00:31.670Z,16.65
2023-05-03T08:03:06.606Z,16.30
2023-05-03T08:05:44.164Z,16.19
2023-05-03T08:08:14.955Z,16.22
2023-05-03T08:10:44.347Z,16.38
2023-05-03T08:13:13.933Z,16.20
2023-05-03T08:15:43.193Z,16.08
2023-05-03T08:18:12.525Z,16.00
2023-05-03T08:20:48.985Z,15.72
2023-05-03T08:23:19.013Z,15.56
2023-05-03T08:25:48.602Z,15.66
2023-05-03T08:28:17.921Z,15.63
2023-05-03T08:31:04.654Z,15.79
2023-05-03T08:33:34.209Z,15.70
2023-05-03T08:36:21.002Z,15.25
2023-05-03T08:38:50.875Z,14.90
2023-05-03T08:41:33.820Z,14.57
2023-05-03T08:47:16.032Z,13.79
2023-05-03T08:49:46.500Z,13.60
2023-05-03T08:52:35.985Z,13.75
2023-05-03T08:55:12.676Z,13.99
2023-05-03T08:57:43.435Z,13.78
2023-05-03T09:00:15.489Z,13.69
2023-05-03T09:02:44.967Z,13.80
2023-05-03T09:05:39.221Z,14.25
2023-05-03T09:08:12.698Z,14.58
2023-05-03T09:10:43.333Z,14.64
2023-05-03T09:13:17.985Z,14.54
2023-05-03T09:15:56.103Z,14.37
2023-05-03T09:18:26.802Z,14.04
2023-05-03T09:20:57.968Z,13.68
2023-05-03T09:23:33.591Z,13.41
2023-05-03T09:26:03.196Z,13.19
2023-05-03T09:28:42.476Z,12.91
2023-05-03T09:31:13.350Z,12.97
2023-05-03T09:33:43.474Z,13.03
2023-05-03T09:36:18.942Z,13.16
2023-05-03T09:38:51.228Z,13.06
2023-05-03T09:41:30.342Z,12.85
2023-05-03T09:44:02.606Z,12.45
2023-05-03T09:46:38.648Z,12.51
2023-05-03T09:49:08.940Z,12.37
2023-05-03T09:51:41.024Z,12.41
2023-05-03T09:54:13.242Z,12.89
2023-05-03T09:56:44.518Z,13.42
2023-05-03T09:59:14.069Z,13.72
2023-05-03T10:01:43.364Z,13.78
2023-05-03T10:04:21.828Z,14.13
2023-05-03T10:06:52.538Z,14.68
2023-05-03T10:09:33.930Z,15.03
2023-05-03T10:12:06.700Z,15.38
2023-05-03T10:14:43.621Z,15.67
2023-05-03T10:17:19.488Z,15.47
2023-05-03T10:22:34.821Z,15.46
2023-05-03T10:25:15.934Z,15.68
2023-05-03T10:27:53.972Z,15.50
2023-05-03T10:30:34.495Z,15.46
2023-05-03T10:33:39.626Z,15.41
2023-05-03T10:36:16.012Z,15.31
2023-05-03T10:38:45.890Z,15.49
2023-05-03T10:41:27.237Z,15.99
2023-05-03T10:44:01.049Z,15.94
2023-05-03T10:46:41.222Z,16.02
2023-05-03T10:49:25.997Z,15.92
2023-05-03T10:54:35.660Z,15.74
2023-05-03T10:57:07.583Z,15.50
2023-05-03T10:59:49.871Z,15.90
2023-05-03T11:02:25.777Z,15.88
2023-05-03T11:05:02.188Z,16.05
2023-05-03T11:10:18.717Z,16.44
2023-05-03T11:18:06.964Z,16.51
2023-05-03T11:20:37.867Z,16.14
2023-05-03T11:23:12.915Z,15.76
2023-05-03T11:25:54.171Z,15.41
2023-05-03T11:28:25.549Z,15.01
2023-05-03T11:30:54.973Z,14.80
2023-05-03T11:33:31.434Z,14.84
2023-05-03T11:36:03.145Z,15.24
2023-05-03T11:38:32.671Z,15.45
2023-05-03T11:41:02.023Z,15.63
2023-05-03T11:43:43.186Z,15.98
2023-05-03T11:46:14.098Z,15.80
2023-05-03T11:48:45.876Z,15.62
2023-05-03T11:51:15.189Z,15.55
2023-05-03T11:53:44.767Z,14.99
2023-05-03T11:56:18.470Z,14.63
2023-05-03T11:58:58.169Z,14.40
2023-05-03T12:01:32.875Z,14.26
2023-05-03T12:04:04.936Z,14.18
2023-05-03T12:06:36.276Z,14.16
2023-05-03T12:09:17.817Z,14.13
2023-05-03T12:11:51.117Z,14.07
2023-05-03T12:14:24.048Z,14.15
2023-05-03T12:16:59.839Z,14.19
2023-05-03T12:19:38.295Z,14.39
2023-05-03T12:22:26.312Z,14.58
2023-05-03T12:24:58.337Z,14.61
2023-05-03T12:27:28.321Z,14.62
2023-05-03T12:30:01.378Z,14.61
2023-05-03T12:32:33.491Z,14.65
2023-05-03T12:35:03.239Z,14.76
2023-05-03T12:37:33.527Z,14.92
2023-05-03T12:40:24.752Z,15.13
2023-05-03T12:42:52.377Z,15.37
2023-05-03T12:51:55.579Z,15.86
2023-05-03T12:54:48.523Z,16.02
2023-05-03T12:57:23.450Z,16.48
2023-05-03T13:00:02.197Z,16.37
2023-05-03T13:07:56.463Z,15.70
2023-05-03T13:10:34.318Z,15.66
2023-05-03T13:13:04.117Z,15.64
2023-05-03T13:15:33.696Z,15.65
2023-05-03T13:18:04.526Z,15.66
2023-05-03T13:20:39.195Z,15.57
2023-05-03T13:23:10.648Z,15.53
2023-05-03T13:25:40.194Z,15.15
2023-05-03T13:28:10.136Z,14.94
2023-05-03T13:30:39.446Z,14.85
2023-05-03T13:33:08.778Z,14.83
2023-05-03T13:35:38.038Z,14.93
2023-05-03T13:38:16.057Z,15.06
2023-05-03T13:40:47.254Z,15.15
2023-05-03T13:43:16.737Z,15.17
2023-05-03T13:45:46.032Z,15.01
2023-05-03T13:48:19.086Z,14.97
2023-05-03T13:50:49.434Z,14.98
2023-05-03T13:53:18.633Z,15.17
2023-05-03T13:55:49.960Z,15.53
2023-05-03T13:58:19.646Z,15.50
2023-05-03T14:00:50.328Z,15.00
2023-05-03T14:03:25.278Z,14.97
2023-05-03T14:05:54.754Z,14.66
2023-05-03T14:08:24.879Z,14.42
2023-05-03T14:10:56.202Z,14.63
2023-05-03T14:13:25.663Z,14.67
2023-05-03T14:15:55.202Z,14.74
2023-05-03T14:18:24.800Z,14.76
2023-05-03T14:20:54.086Z,14.94
2023-05-03T14:23:29.214Z,15.03
2023-05-03T14:26:01.028Z,15.09
2023-05-03T14:28:30.050Z,15.11
2023-05-03T14:30:59.385Z,14.94
2023-05-03T14:33:42.389Z,14.83
2023-05-03T14:36:11.935Z,14.72
2023-05-03T14:38:41.188Z,14.72
2023-05-03T14:41:21.995Z,14.59
2023-05-03T14:43:56.317Z,14.57
2023-05-03T14:46:25.675Z,14.61
2023-05-03T14:48:55.272Z,14.77
2023-05-03T14:54:05.691Z,14.94
2023-05-03T14:56:36.865Z,14.94
2023-05-03T14:59:06.464Z,14.84
2023-05-03T15:01:35.772Z,14.80
2023-05-03T15:04:10.184Z,14.75
2023-05-03T15:06:40.893Z,14.49
2023-05-03T15:09:27.930Z,14.31
2023-05-03T15:11:59.377Z,14.20
2023-05-03T15:14:33.908Z,14.29
2023-05-03T15:17:03.431Z,14.32
2023-05-03T15:19:32.850Z,14.33
2023-05-03T15:22:02.642Z,14.18
2023-05-03T15:24:31.938Z,14.21
2023-05-03T15:27:04.957Z,14.11
2023-05-03T15:29:34.800Z,13.92
2023-05-03T15:32:04.057Z,13.85
2023-05-03T15:34:40.161Z,13.69
2023-05-03T15:37:11.953Z,13.63
2023-05-03T15:39:46.376Z,13.57
2023-05-03T15:42:17.937Z,13.56
2023-05-03T15:44:49.142Z,13.54
2023-05-03T15:47:18.926Z,13.47
2023-05-03T15:49:48.964Z,13.57
2023-05-03T15:52:18.386Z,13.55
2023-05-03T15:54:47.826Z,13.36
2023-05-03T15:57:24.891Z,13.56
2023-05-03T15:59:54.669Z,13.53
2023-05-03T16:02:24.042Z,13.47
2023-05-03T16:04:53.624Z,13.26
2023-05-03T16:07:23.043Z,13.32
2023-05-03T16:09:52.343Z,13.15
2023-05-03T16:12:24.104Z,13.09
2023-05-03T16:15:13.319Z,13.01
2023-05-03T16:18:01.172Z,13.00
2023-05-03T16:20:30.752Z,12.94
2023-05-03T16:23:00.495Z,12.91
2023-05-03T16:25:30.704Z,12.81
2023-05-03T16:28:02.503Z,12.86
2023-05-03T16:30:33.187Z,12.83
2023-05-03T16:33:17.938Z,12.71
2023-05-03T16:35:49.676Z,12.58
2023-05-03T16:38:19.623Z,12.63
2023-05-03T16:40:48.772Z,12.56
2023-05-03T16:43:25.126Z,12.45
2023-05-03T16:46:13.469Z,12.35
2023-05-03T16:48:42.885Z,11.97
2023-05-03T16:51:12.226Z,12.12
2023-05-03T16:53:46.913Z,12.06
2023-05-03T16:56:16.044Z,11.95
2023-05-03T16:58:58.698Z,11.89
2023-05-03T17:01:51.886Z,11.80
2023-05-03T17:07:02.582Z,11.74
2023-05-03T17:09:38.183Z,11.70
2023-05-03T17:12:07.942Z,11.69
2023-05-03T17:14:54.116Z,11.57
2023-05-03T17:17:23.592Z,11.67
2023-05-03T17:19:53.110Z,11.54
2023-05-03T17:22:29.820Z,11.42
2023-05-03T17:24:59.435Z,11.43
2023-05-03T17:27:47.765Z,11.39
2023-05-03T17:30:21.209Z,11.27
2023-05-03T17:32:51.550Z,10.97
2023-05-03T17:35:21.474Z,11.09
2023-05-03T17:37:50.818Z,11.05
2023-05-03T17:40:20.402Z,10.99
2023-05-03T17:42:50.317Z,10.95
2023-05-03T17:45:22.268Z,10.94
2023-05-03T17:47:51.828Z,10.91
2023-05-03T17:50:26.378Z,10.52
2023-05-03T17:52:57.079Z,10.79
2023-05-03T17:55:46.633Z,10.79
2023-05-03T17:58:26.710Z,10.78
2023-05-03T18:00:58.000Z,10.74
2023-05-03T18:03:27.571Z,10.41
2023-05-03T18:05:56.952Z,10.60
2023-05-03T18:08:32.807Z,10.61
2023-05-03T18:11:04.705Z,10.45
2023-05-03T18:13:34.219Z,10.56
2023-05-03T18:16:09.160Z,10.39
2023-05-03T18:18:43.687Z,10.51
2023-05-03T18:21:28.417Z,10.52
2023-05-03T18:23:58.161Z,10.45
2023-05-03T18:26:27.467Z,10.41
2023-05-03T18:28:56.611Z,10.39
2023-05-03T18:31:28.225Z,10.31
2023-05-03T18:33:57.415Z,10.42
2023-05-03T18:36:27.032Z,10.38
2023-05-03T18:38:56.862Z,10.34
2023-05-03T18:41:26.423Z,10.30
2023-05-03T18:46:44.117Z,10.27
2023-05-03T18:49:13.572Z,10.24
2023-05-03T18:51:42.878Z,10.28
2023-05-03T18:54:12.244Z,10.01
2023-05-03T18:56:41.798Z,9.98
2023-05-03T18:59:11.003Z,9.89
2023-05-03T19:01:40.398Z,9.82
2023-05-03T19:04:18.675Z,9.61
2023-05-03T19:09:32.379Z,9.55
2023-05-03T19:12:25.830Z,9.43
2023-05-03T19:14:55.570Z,9.36
2023-05-03T19:17:24.946Z,9.29
2023-05-03T19:19:56.288Z,9.30
2023-05-03T19:22:25.748Z,9.29
2023-05-03T19:24:55.138Z,9.12
2023-05-03T19:27:24.558Z,9.20
2023-05-03T19:29:57.580Z,9.15
2023-05-03T19:32:45.568Z,9.11
2023-05-03T19:35:16.760Z,9.01
2023-05-03T19:37:46.885Z,8.91
2023-05-03T19:40:16.401Z,8.82
2023-05-03T19:45:33.393Z,8.62
2023-05-03T19:48:05.675Z,8.43
2023-05-03T19:50:39.508Z,8.37
2023-05-03T19:55:49.542Z,8.01
2023-05-03T19:58:18.934Z,7.92
2023-05-03T20:00:48.296Z,7.82
2023-05-03T20:03:22.891Z,7.70
2023-05-03T20:05:54.466Z,7.58
2023-05-03T20:08:23.932Z,7.45
2023-05-03T20:10:55.224Z,7.28
2023-05-03T20:13:29.944Z,7.27
2023-05-03T20:16:10.776Z,7.15
2023-05-03T20:18:41.107Z,6.99
2023-05-03T20:21:13.547Z,6.97
2023-05-03T20:23:49.166Z,7.04
2023-05-03T20:26:19.025Z,7.06
2023-05-03T20:28:48.393Z,7.02
2023-05-03T20:31:17.846Z,7.14
2023-05-03T20:33:47.037Z,7.23
2023-05-03T20:36:18.403Z,7.29
2023-05-03T20:38:47.839Z,7.30
2023-05-03T20:41:17.956Z,7.32
2023-05-03T20:43:54.745Z,7.30
2023-05-03T20:46:24.394Z,7.20
2023-05-03T20:48:53.899Z,7.10
2023-05-03T20:51:26.089Z,6.97
2023-05-03T20:53:55.679Z,6.92
2023-05-03T20:56:30.005Z,6.92
2023-05-03T20:59:01.693Z,6.75
2023-05-03T21:01:36.176Z,6.76
2023-05-03T21:04:05.695Z,6.81
2023-05-03T21:06:37.926Z,6.80
2023-05-03T21:09:07.661Z,6.79
2023-05-03T21:11:36.960Z,6.79
2023-05-03T21:14:30.132Z,6.84
2023-05-03T21:17:18.345Z,6.79
2023-05-03T21:20:08.064Z,6.77
2023-05-03T21:22:39.603Z,6.73
2023-05-03T21:25:12.508Z,6.67
2023-05-03T21:27:56.734Z,6.53
2023-05-03T21:30:31.441Z,6.37
2023-05-03T21:33:00.980Z,6.47
2023-05-03T21:35:58.267Z,6.67
2023-05-03T21:38:29.567Z,6.65
2023-05-03T21:41:04.525Z,6.71
2023-05-03T21:43:35.026Z,6.65
2023-05-03T21:46:04.595Z,6.70
2023-05-03T21:49:10.151Z,6.70
2023-05-03T21:51:39.620Z,6.62
2023-05-03T21:54:26.071Z,6.68
2023-05-03T21:56:56.014Z,6.56
2023-05-03T21:59:25.441Z,6.77
2023-05-03T22:01:56.120Z,6.68
2023-05-03T22:04:41.434Z,6.75
2023-05-03T22:10:21.160Z,6.72
2023-05-03T22:12:50.680Z,6.69
2023-05-03T22:15:21.579Z,6.72
2023-05-03T22:17:51.342Z,6.74
2023-05-03T22:20:20.821Z,6.72
2023-05-03T22:22:50.073Z,6.64
2023-05-03T22:25:31.959Z,6.61
2023-05-03T22:28:01.868Z,6.62
2023-05-03T22:30:44.095Z,6.51
2023-05-03T22:33:13.708Z,6.51
2023-05-03T22:35:48.176Z,6.50
2023-05-03T22:38:18.116Z,6.54
2023-05-03T22:40:49.426Z,6.48
2023-05-03T22:43:19.311Z,6.36
2023-05-03T22:45:48.756Z,6.22
2023-05-03T22:48:18.222Z,6.28
2023-05-03T22:50:47.603Z,6.27
2023-05-03T22:53:32.513Z,6.27
2023-05-03T22:56:27.526Z,6.32
2023-05-03T22:58:59.536Z,6.24
2023-05-03T23:01:29.668Z,6.13
2023-05-03T23:04:11.292Z,6.16
2023-05-03T23:06:40.923Z,6.20
2023-05-03T23:09:10.250Z,6.29
2023-05-03T23:11:39.683Z,6.35
2023-05-03T23:14:11.009Z,6.36
2023-05-03T23:16:52.847Z,6.34
2023-05-03T23:19:22.317Z,6.28
2023-05-03T23:21:52.240Z,6.18
2023-05-03T23:24:51.397Z,6.12
2023-05-03T23:27:20.819Z,6.00
2023-05-03T23:29:53.061Z,5.98
2023-05-03T23:32:23.186Z,6.01
2023-05-03T23:35:11.991Z,6.03
2023-05-03T23:37:41.574Z,6.01
2023-05-03T23:40:27.308Z,5.99
2023-05-03T23:42:57.143Z,5.93
2023-05-03T23:45:28.734Z,5.75
2023-05-03T23:48:11.140Z,5.73
2023-05-03T23:50:47.502Z,5.62
2023-05-03T23:53:16.800Z,5.72
2023-05-03T23:56:04.171Z,5.65
2023-05-03T23:58:33.482Z,5.49
